sensor_id;sensor_type;location;lat;lon;timestamp;P1;durP1;ratioP1;P2;durP2;ratioP2
58661;SDS011;44432;49.786;22.760;2022-08-19T00:00:10;18.10;;;16.20;;
58661;SDS011;44432;49.786;22.760;2022-08-19T00:03:02;20.90;;;17.90;;
58661;SDS011;44432;49.786;22.760;2022-08-19T00:05:34;23.70;;;18.60;;
58661;SDS011;44432;49.786;22.760;2022-08-19T00:08:04;19.70;;;16.90;;
58661;SDS011;44432;49.786;22.760;2022-08-19T00:10:35;17.70;;;16.00;;
58661;SDS011;44432;49.786;22.760;2022-08-19T00:13:06;18.00;;;15.30;;
58661;SDS011;44432;49.786;22.760;2022-08-19T00:15:37;18.50;;;16.30;;
58661;SDS011;44432;49.786;22.760;2022-08-19T00:18:07;18.40;;;16.50;;
58661;SDS011;44432;49.786;22.760;2022-08-19T00:20:38;16.90;;;14.90;;
58661;SDS011;44432;49.786;22.760;2022-08-19T00:23:09;21.00;;;16.90;;
58661;SDS011;44432;49.786;22.760;2022-08-19T00:25:39;21.10;;;17.40;;
58661;SDS011;44432;49.786;22.760;2022-08-19T00:28:10;24.40;;;17.30;;
58661;SDS011;44432;49.786;22.760;2022-08-19T00:30:41;18.60;;;16.60;;
58661;SDS011;44432;49.786;22.760;2022-08-19T00:33:11;18.40;;;16.60;;
58661;SDS011;44432;49.786;22.760;2022-08-19T00:35:44;18.10;;;16.30;;
58661;SDS011;44432;49.786;22.760;2022-08-19T00:38:14;17.70;;;16.00;;
58661;SDS011;44432;49.786;22.760;2022-08-19T00:40:45;17.60;;;15.90;;
58661;SDS011;44432;49.786;22.760;2022-08-19T00:43:18;18.70;;;16.70;;
58661;SDS011;44432;49.786;22.760;2022-08-19T00:45:50;17.60;;;15.60;;
58661;SDS011;44432;49.786;22.760;2022-08-19T00:48:21;18.60;;;16.00;;
58661;SDS011;44432;49.786;22.760;2022-08-19T00:50:52;18.60;;;15.70;;
58661;SDS011;44432;49.786;22.760;2022-08-19T00:53:26;18.60;;;16.50;;
58661;SDS011;44432;49.786;22.760;2022-08-19T00:55:58;17.50;;;15.70;;
58661;SDS011;44432;49.786;22.760;2022-08-19T00:58:31;18.70;;;15.60;;
58661;SDS011;44432;49.786;22.760;2022-08-19T01:01:04;18.20;;;16.10;;
58661;SDS011;44432;49.786;22.760;2022-08-19T01:03:35;18.00;;;16.10;;
58661;SDS011;44432;49.786;22.760;2022-08-19T01:06:06;18.50;;;16.60;;
58661;SDS011;44432;49.786;22.760;2022-08-19T01:08:37;20.00;;;15.70;;
58661;SDS011;44432;49.786;22.760;2022-08-19T01:11:08;18.50;;;16.50;;
58661;SDS011;44432;49.786;22.760;2022-08-19T01:13:38;18.00;;;15.60;;
58661;SDS011;44432;49.786;22.760;2022-08-19T01:16:10;17.10;;;15.20;;
58661;SDS011;44432;49.786;22.760;2022-08-19T01:18:42;17.40;;;15.40;;
58661;SDS011;44432;49.786;22.760;2022-08-19T01:21:15;17.70;;;15.40;;
58661;SDS011;44432;49.786;22.760;2022-08-19T01:23:50;18.30;;;15.80;;
58661;SDS011;44432;49.786;22.760;2022-08-19T01:26:22;18.00;;;15.10;;
58661;SDS011;44432;49.786;22.760;2022-08-19T01:31:25;16.70;;;15.00;;
58661;SDS011;44432;49.786;22.760;2022-08-19T01:33:59;18.20;;;15.50;;
58661;SDS011;44432;49.786;22.760;2022-08-19T01:36:31;18.00;;;16.10;;
58661;SDS011;44432;49.786;22.760;2022-08-19T01:39:05;17.70;;;15.40;;
58661;SDS011;44432;49.786;22.760;2022-08-19T01:41:38;17.60;;;15.70;;
58661;SDS011;44432;49.786;22.760;2022-08-19T01:44:09;19.30;;;16.30;;
58661;SDS011;44432;49.786;22.760;2022-08-19T01:46:40;18.10;;;16.20;;
58661;SDS011;44432;49.786;22.760;2022-08-19T01:49:12;18.10;;;15.40;;
58661;SDS011;44432;49.786;22.760;2022-08-19T01:51:43;17.60;;;15.90;;
58661;SDS011;44432;49.786;22.760;2022-08-19T01:54:14;18.60;;;16.70;;
58661;SDS011;44432;49.786;22.760;2022-08-19T01:56:46;18.20;;;16.30;;
58661;SDS011;44432;49.786;22.760;2022-08-19T01:59:19;19.10;;;16.10;;
58661;SDS011;44432;49.786;22.760;2022-08-19T02:01:52;17.80;;;15.90;;
58661;SDS011;44432;49.786;22.760;2022-08-19T02:04:23;18.60;;;15.40;;
58661;SDS011;44432;49.786;22.760;2022-08-19T02:06:54;17.70;;;15.80;;
58661;SDS011;44432;49.786;22.760;2022-08-19T02:09:26;18.80;;;16.50;;
58661;SDS011;44432;49.786;22.760;2022-08-19T02:11:56;17.90;;;15.40;;
58661;SDS011;44432;49.786;22.760;2022-08-19T02:14:27;17.00;;;15.20;;
58661;SDS011;44432;49.786;22.760;2022-08-19T02:16:57;17.10;;;15.20;;
58661;SDS011;44432;49.786;22.760;2022-08-19T02:19:28;15.40;;;13.90;;
58661;SDS011;44432;49.786;22.760;2022-08-19T02:22:00;16.10;;;14.40;;
58661;SDS011;44432;49.786;22.760;2022-08-19T02:24:31;15.70;;;14.10;;
58661;SDS011;44432;49.786;22.760;2022-08-19T02:27:02;16.40;;;14.80;;
58661;SDS011;44432;49.786;22.760;2022-08-19T02:29:33;15.90;;;14.30;;
58661;SDS011;44432;49.786;22.760;2022-08-19T02:32:04;17.60;;;15.70;;
58661;SDS011;44432;49.786;22.760;2022-08-19T02:34:34;16.10;;;14.50;;
58661;SDS011;44432;49.786;22.760;2022-08-19T02:37:05;17.80;;;16.00;;
58661;SDS011;44432;49.786;22.760;2022-08-19T02:39:56;17.40;;;15.60;;
58661;SDS011;44432;49.786;22.760;2022-08-19T02:42:27;20.80;;;16.30;;
58661;SDS011;44432;49.786;22.760;2022-08-19T02:44:57;18.50;;;16.70;;
58661;SDS011;44432;49.786;22.760;2022-08-19T02:47:28;18.70;;;16.80;;
58661;SDS011;44432;49.786;22.760;2022-08-19T02:49:59;18.00;;;16.30;;
58661;SDS011;44432;49.786;22.760;2022-08-19T02:52:32;18.80;;;16.80;;
58661;SDS011;44432;49.786;22.760;2022-08-19T02:55:04;19.70;;;15.70;;
58661;SDS011;44432;49.786;22.760;2022-08-19T02:57:36;19.00;;;16.30;;
58661;SDS011;44432;49.786;22.760;2022-08-19T03:00:08;18.50;;;16.70;;
58661;SDS011;44432;49.786;22.760;2022-08-19T03:02:40;20.40;;;15.80;;
58661;SDS011;44432;49.786;22.760;2022-08-19T03:05:11;18.30;;;16.20;;
58661;SDS011;44432;49.786;22.760;2022-08-19T03:07:41;20.40;;;17.30;;
58661;SDS011;44432;49.786;22.760;2022-08-19T03:10:12;19.10;;;17.00;;
58661;SDS011;44432;49.786;22.760;2022-08-19T03:12:43;18.90;;;16.90;;
58661;SDS011;44432;49.786;22.760;2022-08-19T03:15:14;25.00;;;19.50;;
58661;SDS011;44432;49.786;22.760;2022-08-19T03:17:44;19.00;;;16.00;;
58661;SDS011;44432;49.786;22.760;2022-08-19T03:20:15;18.20;;;16.30;;
58661;SDS011;44432;49.786;22.760;2022-08-19T03:22:46;20.80;;;16.70;;
58661;SDS011;44432;49.786;22.760;2022-08-19T03:25:16;17.80;;;15.90;;
58661;SDS011;44432;49.786;22.760;2022-08-19T03:27:47;17.20;;;15.20;;
58661;SDS011;44432;49.786;22.760;2022-08-19T03:30:17;18.20;;;16.30;;
58661;SDS011;44432;49.786;22.760;2022-08-19T03:32:48;18.50;;;15.60;;
58661;SDS011;44432;49.786;22.760;2022-08-19T03:35:20;18.00;;;16.00;;
58661;SDS011;44432;49.786;22.760;2022-08-19T03:37:50;20.70;;;15.70;;
58661;SDS011;44432;49.786;22.760;2022-08-19T03:40:21;22.50;;;19.40;;
58661;SDS011;44432;49.786;22.760;2022-08-19T03:42:51;16.90;;;15.30;;
58661;SDS011;44432;49.786;22.760;2022-08-19T03:45:22;15.50;;;13.80;;
58661;SDS011;44432;49.786;22.760;2022-08-19T03:47:52;15.20;;;13.80;;
58661;SDS011;44432;49.786;22.760;2022-08-19T03:50:23;14.90;;;13.40;;
58661;SDS011;44432;49.786;22.760;2022-08-19T03:52:54;14.70;;;13.30;;
58661;SDS011;44432;49.786;22.760;2022-08-19T03:55:25;15.30;;;13.70;;
58661;SDS011;44432;49.786;22.760;2022-08-19T03:57:55;14.90;;;13.50;;
58661;SDS011;44432;49.786;22.760;2022-08-19T04:00:26;17.00;;;14.20;;
58661;SDS011;44432;49.786;22.760;2022-08-19T04:02:56;14.40;;;12.90;;
58661;SDS011;44432;49.786;22.760;2022-08-19T04:05:28;17.70;;;15.80;;
58661;SDS011;44432;49.786;22.760;2022-08-19T04:07:58;18.00;;;15.80;;
58661;SDS011;44432;49.786;22.760;2022-08-19T04:10:29;19.00;;;16.60;;
58661;SDS011;44432;49.786;22.760;2022-08-19T04:13:00;16.80;;;15.00;;
58661;SDS011;44432;49.786;22.760;2022-08-19T04:15:31;16.80;;;15.10;;
58661;SDS011;44432;49.786;22.760;2022-08-19T04:18:09;17.30;;;15.60;;
58661;SDS011;44432;49.786;22.760;2022-08-19T04:20:45;18.90;;;15.70;;
58661;SDS011;44432;49.786;22.760;2022-08-19T04:23:17;26.90;;;16.50;;
58661;SDS011;44432;49.786;22.760;2022-08-19T04:25:47;22.80;;;16.50;;
58661;SDS011;44432;49.786;22.760;2022-08-19T04:28:18;18.00;;;16.00;;
58661;SDS011;44432;49.786;22.760;2022-08-19T04:30:50;18.10;;;15.00;;
58661;SDS011;44432;49.786;22.760;2022-08-19T04:35:52;17.90;;;14.40;;
58661;SDS011;44432;49.786;22.760;2022-08-19T04:38:25;20.80;;;15.20;;
58661;SDS011;44432;49.786;22.760;2022-08-19T04:40:56;20.10;;;16.00;;
58661;SDS011;44432;49.786;22.760;2022-08-19T04:43:45;17.50;;;15.20;;
58661;SDS011;44432;49.786;22.760;2022-08-19T04:46:16;18.90;;;15.50;;
58661;SDS011;44432;49.786;22.760;2022-08-19T04:48:47;18.90;;;15.30;;
58661;SDS011;44432;49.786;22.760;2022-08-19T04:51:18;19.70;;;16.20;;
58661;SDS011;44432;49.786;22.760;2022-08-19T04:53:48;19.60;;;15.40;;
58661;SDS011;44432;49.786;22.760;2022-08-19T04:56:20;16.10;;;14.10;;
58661;SDS011;44432;49.786;22.760;2022-08-19T04:58:54;17.40;;;13.40;;
58661;SDS011;44432;49.786;22.760;2022-08-19T05:01:27;16.20;;;12.90;;
58661;SDS011;44432;49.786;22.760;2022-08-19T05:03:59;14.50;;;12.00;;
58661;SDS011;44432;49.786;22.760;2022-08-19T05:06:32;12.90;;;11.70;;
58661;SDS011;44432;49.786;22.760;2022-08-19T05:09:04;15.70;;;12.00;;
58661;SDS011;44432;49.786;22.760;2022-08-19T05:11:36;13.10;;;11.30;;
58661;SDS011;44432;49.786;22.760;2022-08-19T05:14:07;14.10;;;11.80;;
58661;SDS011;44432;49.786;22.760;2022-08-19T05:16:40;21.30;;;12.10;;
58661;SDS011;44432;49.786;22.760;2022-08-19T05:19:10;13.30;;;11.90;;
58661;SDS011;44432;49.786;22.760;2022-08-19T05:21:59;14.10;;;12.30;;
58661;SDS011;44432;49.786;22.760;2022-08-19T05:24:47;15.60;;;12.80;;
58661;SDS011;44432;49.786;22.760;2022-08-19T05:27:18;22.80;;;14.00;;
58661;SDS011;44432;49.786;22.760;2022-08-19T05:29:48;15.40;;;13.70;;
58661;SDS011;44432;49.786;22.760;2022-08-19T05:32:19;21.50;;;13.50;;
58661;SDS011;44432;49.786;22.760;2022-08-19T05:34:51;18.70;;;14.10;;
58661;SDS011;44432;49.786;22.760;2022-08-19T05:37:21;17.00;;;13.30;;
58661;SDS011;44432;49.786;22.760;2022-08-19T05:39:54;16.00;;;12.70;;
58661;SDS011;44432;49.786;22.760;2022-08-19T05:42:25;15.50;;;13.10;;
58661;SDS011;44432;49.786;22.760;2022-08-19T05:44:56;15.70;;;13.00;;
58661;SDS011;44432;49.786;22.760;2022-08-19T05:47:26;18.30;;;12.80;;
58661;SDS011;44432;49.786;22.760;2022-08-19T05:49:57;17.90;;;13.00;;
58661;SDS011;44432;49.786;22.760;2022-08-19T05:52:29;13.70;;;12.10;;
58661;SDS011;44432;49.786;22.760;2022-08-19T05:54:59;16.70;;;12.10;;
58661;SDS011;44432;49.786;22.760;2022-08-19T05:57:30;15.40;;;12.10;;
58661;SDS011;44432;49.786;22.760;2022-08-19T06:00:01;13.70;;;11.30;;
58661;SDS011;44432;49.786;22.760;2022-08-19T06:02:36;15.80;;;11.30;;
58661;SDS011;44432;49.786;22.760;2022-08-19T06:05:07;12.70;;;11.40;;
58661;SDS011;44432;49.786;22.760;2022-08-19T06:07:39;13.70;;;11.20;;
58661;SDS011;44432;49.786;22.760;2022-08-19T06:10:10;14.70;;;11.40;;
58661;SDS011;44432;49.786;22.760;2022-08-19T06:12:41;14.10;;;10.90;;
58661;SDS011;44432;49.786;22.760;2022-08-19T06:15:12;20.20;;;13.50;;
58661;SDS011;44432;49.786;22.760;2022-08-19T06:17:43;15.00;;;11.30;;
58661;SDS011;44432;49.786;22.760;2022-08-19T06:20:14;18.20;;;10.60;;
58661;SDS011;44432;49.786;22.760;2022-08-19T06:22:48;16.50;;;10.60;;
58661;SDS011;44432;49.786;22.760;2022-08-19T06:25:19;17.20;;;10.70;;
58661;SDS011;44432;49.786;22.760;2022-08-19T06:27:49;17.40;;;10.40;;
58661;SDS011;44432;49.786;22.760;2022-08-19T06:30:21;14.50;;;10.60;;
58661;SDS011;44432;49.786;22.760;2022-08-19T06:32:52;14.10;;;9.60;;
58661;SDS011;44432;49.786;22.760;2022-08-19T06:35:22;14.50;;;10.20;;
58661;SDS011;44432;49.786;22.760;2022-08-19T06:37:53;16.30;;;10.40;;
58661;SDS011;44432;49.786;22.760;2022-08-19T06:40:24;10.90;;;9.30;;
58661;SDS011;44432;49.786;22.760;2022-08-19T06:42:55;16.50;;;9.80;;
58661;SDS011;44432;49.786;22.760;2022-08-19T06:45:26;12.30;;;9.70;;
58661;SDS011;44432;49.786;22.760;2022-08-19T06:47:57;15.90;;;9.50;;
58661;SDS011;44432;49.786;22.760;2022-08-19T06:50:28;15.90;;;13.10;;
58661;SDS011;44432;49.786;22.760;2022-08-19T06:52:59;12.40;;;9.90;;
58661;SDS011;44432;49.786;22.760;2022-08-19T06:55:30;14.40;;;10.10;;
58661;SDS011;44432;49.786;22.760;2022-08-19T06:58:02;11.40;;;9.30;;
58661;SDS011;44432;49.786;22.760;2022-08-19T07:00:33;17.70;;;9.50;;
58661;SDS011;44432;49.786;22.760;2022-08-19T07:03:04;13.40;;;9.60;;
58661;SDS011;44432;49.786;22.760;2022-08-19T07:05:38;14.00;;;8.80;;
58661;SDS011;44432;49.786;22.760;2022-08-19T07:08:10;11.00;;;9.40;;
58661;SDS011;44432;49.786;22.760;2022-08-19T07:10:43;15.00;;;9.90;;
58661;SDS011;44432;49.786;22.760;2022-08-19T07:13:15;13.10;;;9.90;;
58661;SDS011;44432;49.786;22.760;2022-08-19T07:15:46;12.10;;;9.50;;
58661;SDS011;44432;49.786;22.760;2022-08-19T07:18:18;12.40;;;9.80;;
58661;SDS011;44432;49.786;22.760;2022-08-19T07:20:50;13.50;;;10.00;;
58661;SDS011;44432;49.786;22.760;2022-08-19T07:23:31;17.00;;;9.40;;
58661;SDS011;44432;49.786;22.760;2022-08-19T07:26:05;14.80;;;8.80;;
58661;SDS011;44432;49.786;22.760;2022-08-19T07:28:36;14.50;;;9.60;;
58661;SDS011;44432;49.786;22.760;2022-08-19T07:31:08;10.60;;;8.20;;
58661;SDS011;44432;49.786;22.760;2022-08-19T07:33:41;15.60;;;9.00;;
58661;SDS011;44432;49.786;22.760;2022-08-19T07:36:12;13.10;;;9.30;;
58661;SDS011;44432;49.786;22.760;2022-08-19T07:38:45;11.40;;;8.70;;
58661;SDS011;44432;49.786;22.760;2022-08-19T07:41:18;10.80;;;8.50;;
58661;SDS011;44432;49.786;22.760;2022-08-19T07:43:50;11.30;;;9.00;;
58661;SDS011;44432;49.786;22.760;2022-08-19T07:46:21;12.50;;;8.50;;
58661;SDS011;44432;49.786;22.760;2022-08-19T07:48:52;13.40;;;9.20;;
58661;SDS011;44432;49.786;22.760;2022-08-19T07:51:22;11.20;;;8.80;;
58661;SDS011;44432;49.786;22.760;2022-08-19T07:53:53;12.20;;;8.00;;
58661;SDS011;44432;49.786;22.760;2022-08-19T07:56:24;11.90;;;8.40;;
58661;SDS011;44432;49.786;22.760;2022-08-19T07:58:54;14.40;;;10.40;;
58661;SDS011;44432;49.786;22.760;2022-08-19T08:01:26;11.40;;;9.00;;
58661;SDS011;44432;49.786;22.760;2022-08-19T08:03:57;10.30;;;7.50;;
58661;SDS011;44432;49.786;22.760;2022-08-19T08:06:45;13.10;;;8.20;;
58661;SDS011;44432;49.786;22.760;2022-08-19T08:09:34;10.70;;;7.50;;
58661;SDS011;44432;49.786;22.760;2022-08-19T08:12:08;12.80;;;7.50;;
58661;SDS011;44432;49.786;22.760;2022-08-19T08:14:43;10.40;;;7.30;;
58661;SDS011;44432;49.786;22.760;2022-08-19T08:17:15;9.50;;;7.30;;
58661;SDS011;44432;49.786;22.760;2022-08-19T08:19:47;9.60;;;6.70;;
58661;SDS011;44432;49.786;22.760;2022-08-19T08:22:20;10.60;;;6.90;;
58661;SDS011;44432;49.786;22.760;2022-08-19T08:25:05;10.80;;;7.10;;
58661;SDS011;44432;49.786;22.760;2022-08-19T08:27:39;12.10;;;7.70;;
58661;SDS011;44432;49.786;22.760;2022-08-19T08:30:17;10.10;;;7.20;;
58661;SDS011;44432;49.786;22.760;2022-08-19T08:32:50;8.00;;;6.80;;
58661;SDS011;44432;49.786;22.760;2022-08-19T08:35:21;12.30;;;6.80;;
58661;SDS011;44432;49.786;22.760;2022-08-19T08:37:53;13.40;;;8.10;;
58661;SDS011;44432;49.786;22.760;2022-08-19T08:40:26;10.70;;;7.10;;
58661;SDS011;44432;49.786;22.760;2022-08-19T08:43:03;10.70;;;6.90;;
58661;SDS011;44432;49.786;22.760;2022-08-19T08:45:51;11.60;;;8.00;;
58661;SDS011;44432;49.786;22.760;2022-08-19T08:48:27;11.60;;;7.30;;
58661;SDS011;44432;49.786;22.760;2022-08-19T08:51:05;10.80;;;6.20;;
58661;SDS011;44432;49.786;22.760;2022-08-19T08:53:39;12.60;;;6.90;;
58661;SDS011;44432;49.786;22.760;2022-08-19T08:56:12;12.30;;;7.70;;
58661;SDS011;44432;49.786;22.760;2022-08-19T08:58:46;11.90;;;6.00;;
58661;SDS011;44432;49.786;22.760;2022-08-19T09:01:23;10.40;;;6.40;;
58661;SDS011;44432;49.786;22.760;2022-08-19T09:03:55;13.00;;;6.60;;
58661;SDS011;44432;49.786;22.760;2022-08-19T09:06:27;13.40;;;6.50;;
58661;SDS011;44432;49.786;22.760;2022-08-19T09:09:04;13.30;;;6.60;;
58661;SDS011;44432;49.786;22.760;2022-08-19T09:11:47;12.90;;;6.50;;
58661;SDS011;44432;49.786;22.760;2022-08-19T09:14:31;11.50;;;6.70;;
58661;SDS011;44432;49.786;22.760;2022-08-19T09:17:09;12.30;;;6.10;;
58661;SDS011;44432;49.786;22.760;2022-08-19T09:19:48;10.60;;;5.90;;
58661;SDS011;44432;49.786;22.760;2022-08-19T09:22:24;8.10;;;6.40;;
58661;SDS011;44432;49.786;22.760;2022-08-19T09:24:55;10.70;;;7.30;;
58661;SDS011;44432;49.786;22.760;2022-08-19T09:27:26;10.10;;;6.70;;
58661;SDS011;44432;49.786;22.760;2022-08-19T09:29:58;12.90;;;7.10;;
58661;SDS011;44432;49.786;22.760;2022-08-19T09:32:28;9.90;;;7.10;;
58661;SDS011;44432;49.786;22.760;2022-08-19T09:34:59;14.40;;;7.70;;
58661;SDS011;44432;49.786;22.760;2022-08-19T09:37:30;13.70;;;7.60;;
58661;SDS011;44432;49.786;22.760;2022-08-19T09:40:01;10.90;;;6.60;;
58661;SDS011;44432;49.786;22.760;2022-08-19T09:45:02;10.80;;;6.30;;
58661;SDS011;44432;49.786;22.760;2022-08-19T09:47:34;15.40;;;6.30;;
58661;SDS011;44432;49.786;22.760;2022-08-19T09:50:07;13.90;;;6.50;;
58661;SDS011;44432;49.786;22.760;2022-08-19T09:52:40;9.40;;;6.20;;
58661;SDS011;44432;49.786;22.760;2022-08-19T09:55:11;10.30;;;5.50;;
58661;SDS011;44432;49.786;22.760;2022-08-19T09:57:43;12.50;;;6.70;;
58661;SDS011;44432;49.786;22.760;2022-08-19T10:00:14;13.00;;;5.70;;
58661;SDS011;44432;49.786;22.760;2022-08-19T10:02:45;7.80;;;6.00;;
58661;SDS011;44432;49.786;22.760;2022-08-19T10:05:16;13.10;;;6.70;;
58661;SDS011;44432;49.786;22.760;2022-08-19T10:08:04;11.00;;;5.90;;
58661;SDS011;44432;49.786;22.760;2022-08-19T10:10:36;11.60;;;6.60;;
58661;SDS011;44432;49.786;22.760;2022-08-19T10:13:06;12.60;;;6.10;;
58661;SDS011;44432;49.786;22.760;2022-08-19T10:15:37;9.10;;;5.60;;
58661;SDS011;44432;49.786;22.760;2022-08-19T10:18:08;10.80;;;6.10;;
58661;SDS011;44432;49.786;22.760;2022-08-19T10:20:38;8.20;;;6.00;;
58661;SDS011;44432;49.786;22.760;2022-08-19T10:23:09;11.40;;;6.10;;
58661;SDS011;44432;49.786;22.760;2022-08-19T10:25:40;10.30;;;5.60;;
58661;SDS011;44432;49.786;22.760;2022-08-19T10:28:11;10.70;;;6.00;;
58661;SDS011;44432;49.786;22.760;2022-08-19T10:30:42;12.30;;;5.50;;
58661;SDS011;44432;49.786;22.760;2022-08-19T10:33:12;12.90;;;5.70;;
58661;SDS011;44432;49.786;22.760;2022-08-19T10:35:43;10.00;;;5.30;;
58661;SDS011;44432;49.786;22.760;2022-08-19T10:38:14;12.20;;;6.00;;
58661;SDS011;44432;49.786;22.760;2022-08-19T10:40:44;9.60;;;6.60;;
58661;SDS011;44432;49.786;22.760;2022-08-19T10:43:15;11.70;;;5.50;;
58661;SDS011;44432;49.786;22.760;2022-08-19T10:45:49;7.40;;;5.80;;
58661;SDS011;44432;49.786;22.760;2022-08-19T10:48:24;13.00;;;7.00;;
58661;SDS011;44432;49.786;22.760;2022-08-19T10:50:54;13.50;;;7.50;;
58661;SDS011;44432;49.786;22.760;2022-08-19T10:53:44;12.20;;;5.90;;
58661;SDS011;44432;49.786;22.760;2022-08-19T10:56:15;11.10;;;5.30;;
58661;SDS011;44432;49.786;22.760;2022-08-19T10:59:04;8.10;;;5.00;;
58661;SDS011;44432;49.786;22.760;2022-08-19T11:01:35;12.20;;;5.10;;
58661;SDS011;44432;49.786;22.760;2022-08-19T11:04:05;10.80;;;5.40;;
58661;SDS011;44432;49.786;22.760;2022-08-19T11:06:38;7.90;;;5.70;;
58661;SDS011;44432;49.786;22.760;2022-08-19T11:09:10;13.20;;;6.30;;
58661;SDS011;44432;49.786;22.760;2022-08-19T11:11:42;9.10;;;5.40;;
58661;SDS011;44432;49.786;22.760;2022-08-19T11:14:15;8.70;;;5.50;;
58661;SDS011;44432;49.786;22.760;2022-08-19T11:16:48;8.50;;;5.40;;
58661;SDS011;44432;49.786;22.760;2022-08-19T11:19:19;10.70;;;5.30;;
58661;SDS011;44432;49.786;22.760;2022-08-19T11:21:51;8.90;;;5.00;;
58661;SDS011;44432;49.786;22.760;2022-08-19T11:24:23;12.20;;;5.60;;
58661;SDS011;44432;49.786;22.760;2022-08-19T11:26:58;8.60;;;5.60;;
58661;SDS011;44432;49.786;22.760;2022-08-19T11:29:32;11.90;;;5.60;;
58661;SDS011;44432;49.786;22.760;2022-08-19T11:32:05;10.10;;;5.30;;
58661;SDS011;44432;49.786;22.760;2022-08-19T11:34:38;10.10;;;6.10;;
58661;SDS011;44432;49.786;22.760;2022-08-19T11:37:09;9.90;;;4.70;;
58661;SDS011;44432;49.786;22.760;2022-08-19T11:39:39;10.40;;;4.60;;
58661;SDS011;44432;49.786;22.760;2022-08-19T11:42:10;7.80;;;5.00;;
58661;SDS011;44432;49.786;22.760;2022-08-19T11:44:58;11.00;;;5.20;;
58661;SDS011;44432;49.786;22.760;2022-08-19T11:47:30;11.40;;;4.80;;
58661;SDS011;44432;49.786;22.760;2022-08-19T11:50:01;11.60;;;4.80;;
58661;SDS011;44432;49.786;22.760;2022-08-19T11:52:33;8.60;;;4.80;;
58661;SDS011;44432;49.786;22.760;2022-08-19T11:55:04;10.00;;;5.00;;
58661;SDS011;44432;49.786;22.760;2022-08-19T11:57:36;8.10;;;4.60;;
58661;SDS011;44432;49.786;22.760;2022-08-19T12:00:09;9.20;;;4.20;;
58661;SDS011;44432;49.786;22.760;2022-08-19T12:02:41;7.30;;;4.40;;
58661;SDS011;44432;49.786;22.760;2022-08-19T12:05:12;7.60;;;4.30;;
58661;SDS011;44432;49.786;22.760;2022-08-19T12:07:43;9.40;;;4.70;;
58661;SDS011;44432;49.786;22.760;2022-08-19T12:10:13;6.50;;;4.20;;
58661;SDS011;44432;49.786;22.760;2022-08-19T12:12:44;7.70;;;4.90;;
58661;SDS011;44432;49.786;22.760;2022-08-19T12:15:15;11.50;;;5.10;;
58661;SDS011;44432;49.786;22.760;2022-08-19T12:17:46;7.40;;;4.10;;
58661;SDS011;44432;49.786;22.760;2022-08-19T12:20:16;11.50;;;4.20;;
58661;SDS011;44432;49.786;22.760;2022-08-19T12:22:47;10.50;;;4.80;;
58661;SDS011;44432;49.786;22.760;2022-08-19T12:25:18;9.00;;;4.80;;
58661;SDS011;44432;49.786;22.760;2022-08-19T12:27:49;8.60;;;4.50;;
58661;SDS011;44432;49.786;22.760;2022-08-19T12:30:20;8.90;;;3.60;;
58661;SDS011;44432;49.786;22.760;2022-08-19T12:32:51;7.50;;;4.20;;
58661;SDS011;44432;49.786;22.760;2022-08-19T12:35:22;6.80;;;4.30;;
58661;SDS011;44432;49.786;22.760;2022-08-19T12:37:52;10.00;;;4.30;;
58661;SDS011;44432;49.786;22.760;2022-08-19T12:40:23;7.80;;;4.10;;
58661;SDS011;44432;49.786;22.760;2022-08-19T12:42:54;8.70;;;4.10;;
58661;SDS011;44432;49.786;22.760;2022-08-19T12:45:25;14.00;;;8.80;;
58661;SDS011;44432;49.786;22.760;2022-08-19T12:47:55;11.00;;;5.30;;
58661;SDS011;44432;49.786;22.760;2022-08-19T12:50:26;9.30;;;3.90;;
58661;SDS011;44432;49.786;22.760;2022-08-19T12:52:58;8.50;;;4.70;;
58661;SDS011;44432;49.786;22.760;2022-08-19T12:55:28;9.00;;;3.90;;
58661;SDS011;44432;49.786;22.760;2022-08-19T12:57:59;7.40;;;3.90;;
58661;SDS011;44432;49.786;22.760;2022-08-19T13:00:30;9.80;;;4.40;;
58661;SDS011;44432;49.786;22.760;2022-08-19T13:03:01;7.80;;;3.80;;
58661;SDS011;44432;49.786;22.760;2022-08-19T13:05:32;10.70;;;4.30;;
58661;SDS011;44432;49.786;22.760;2022-08-19T13:08:03;11.90;;;4.60;;
58661;SDS011;44432;49.786;22.760;2022-08-19T13:10:34;13.40;;;4.40;;
58661;SDS011;44432;49.786;22.760;2022-08-19T13:13:06;11.20;;;3.90;;
58661;SDS011;44432;49.786;22.760;2022-08-19T13:18:09;12.30;;;4.50;;
58661;SDS011;44432;49.786;22.760;2022-08-19T13:20:40;10.70;;;4.10;;
58661;SDS011;44432;49.786;22.760;2022-08-19T13:23:11;10.90;;;4.20;;
58661;SDS011;44432;49.786;22.760;2022-08-19T13:25:41;10.50;;;4.20;;
58661;SDS011;44432;49.786;22.760;2022-08-19T13:28:12;15.20;;;4.00;;
58661;SDS011;44432;49.786;22.760;2022-08-19T13:30:43;14.50;;;4.80;;
58661;SDS011;44432;49.786;22.760;2022-08-19T13:33:34;14.70;;;4.80;;
58661;SDS011;44432;49.786;22.760;2022-08-19T13:36:05;11.20;;;4.80;;
58661;SDS011;44432;49.786;22.760;2022-08-19T13:38:36;13.50;;;4.50;;
58661;SDS011;44432;49.786;22.760;2022-08-19T13:41:07;14.80;;;4.70;;
58661;SDS011;44432;49.786;22.760;2022-08-19T13:43:37;18.00;;;4.50;;
58661;SDS011;44432;49.786;22.760;2022-08-19T13:46:09;14.30;;;4.50;;
58661;SDS011;44432;49.786;22.760;2022-08-19T13:48:41;12.40;;;4.60;;
58661;SDS011;44432;49.786;22.760;2022-08-19T13:51:12;13.60;;;4.60;;
58661;SDS011;44432;49.786;22.760;2022-08-19T13:53:44;13.70;;;4.40;;
58661;SDS011;44432;49.786;22.760;2022-08-19T13:56:15;11.70;;;4.50;;
58661;SDS011;44432;49.786;22.760;2022-08-19T13:58:47;10.60;;;4.20;;
58661;SDS011;44432;49.786;22.760;2022-08-19T14:01:20;14.70;;;4.90;;
58661;SDS011;44432;49.786;22.760;2022-08-19T14:03:51;16.50;;;4.20;;
58661;SDS011;44432;49.786;22.760;2022-08-19T14:06:22;9.10;;;3.70;;
58661;SDS011;44432;49.786;22.760;2022-08-19T14:08:53;17.10;;;4.10;;
58661;SDS011;44432;49.786;22.760;2022-08-19T14:11:23;11.40;;;3.80;;
58661;SDS011;44432;49.786;22.760;2022-08-19T14:13:54;15.40;;;3.70;;
58661;SDS011;44432;49.786;22.760;2022-08-19T14:16:25;8.90;;;3.50;;
58661;SDS011;44432;49.786;22.760;2022-08-19T14:18:57;8.50;;;3.50;;
58661;SDS011;44432;49.786;22.760;2022-08-19T14:21:28;9.70;;;3.30;;
58661;SDS011;44432;49.786;22.760;2022-08-19T14:23:59;13.00;;;3.60;;
58661;SDS011;44432;49.786;22.760;2022-08-19T14:26:29;8.10;;;3.50;;
58661;SDS011;44432;49.786;22.760;2022-08-19T14:29:00;13.50;;;3.50;;
58661;SDS011;44432;49.786;22.760;2022-08-19T14:31:30;9.20;;;4.00;;
58661;SDS011;44432;49.786;22.760;2022-08-19T14:34:01;10.90;;;3.70;;
58661;SDS011;44432;49.786;22.760;2022-08-19T14:36:31;13.30;;;3.80;;
58661;SDS011;44432;49.786;22.760;2022-08-19T14:39:02;6.80;;;3.60;;
58661;SDS011;44432;49.786;22.760;2022-08-19T14:41:33;14.60;;;3.70;;
58661;SDS011;44432;49.786;22.760;2022-08-19T14:44:04;8.40;;;3.40;;
58661;SDS011;44432;49.786;22.760;2022-08-19T14:46:35;11.50;;;4.40;;
58661;SDS011;44432;49.786;22.760;2022-08-19T14:49:05;9.70;;;3.30;;
58661;SDS011;44432;49.786;22.760;2022-08-19T14:51:36;5.60;;;3.00;;
58661;SDS011;44432;49.786;22.760;2022-08-19T14:54:07;10.20;;;3.30;;
58661;SDS011;44432;49.786;22.760;2022-08-19T14:56:37;6.90;;;3.10;;